createdAt,value
2023-03-22T00:00:17.761Z,37.77
2023-03-22T00:02:48.117Z,40.77
2023-03-22T00:05:17.033Z,41.60
2023-03-22T00:07:45.790Z,39.53
2023-03-22T00:10:14.512Z,41.57
2023-03-22T00:12:43.260Z,40.57
2023-03-22T00:15:12.907Z,38.33
2023-03-22T00:17:42.263Z,42.17
2023-03-22T00:20:13.779Z,41.00
2023-03-22T00:22:42.569Z,43.60
2023-03-22T00:25:11.869Z,44.60
2023-03-22T00:27:40.638Z,39.67
2023-03-22T00:30:10.909Z,43.43
2023-03-22T00:32:40.164Z,45.20
2023-03-22T00:35:09.655Z,45.40
2023-03-22T00:37:40.134Z,42.43
2023-03-22T00:40:12.534Z,42.93
2023-03-22T00:42:42.699Z,40.07
2023-03-22T00:45:13.459Z,44.90
2023-03-22T00:47:42.349Z,42.80
2023-03-22T00:50:11.907Z,42.93
2023-03-22T00:52:42.102Z,42.27
2023-03-22T00:55:11.061Z,51.10
2023-03-22T00:57:39.762Z,46.87
2023-03-22T01:00:13.630Z,45.90
2023-03-22T01:02:42.793Z,42.10
2023-03-22T01:05:15.904Z,41.50
2023-03-22T01:07:46.335Z,40.83
2023-03-22T01:10:15.099Z,37.83
2023-03-22T01:12:43.774Z,46.20
2023-03-22T01:15:13.247Z,40.40
2023-03-22T01:17:42.109Z,41.00
2023-03-22T01:20:12.139Z,43.10
2023-03-22T01:22:41.955Z,43.93
2023-03-22T01:25:12.329Z,44.80
2023-03-22T01:27:41.179Z,42.47
2023-03-22T01:30:11.025Z,40.33
2023-03-22T01:32:40.141Z,42.90
2023-03-22T01:35:09.327Z,45.67
2023-03-22T01:37:38.103Z,45.13
2023-03-22T01:40:08.478Z,49.50
2023-03-22T01:42:38.617Z,39.80
2023-03-22T01:45:38.858Z,42.37
2023-03-22T01:48:13.964Z,41.60
2023-03-22T01:50:46.903Z,41.73
2023-03-22T01:53:19.006Z,37.87
2023-03-22T01:55:48.509Z,39.10
2023-03-22T01:58:19.279Z,42.70
2023-03-22T02:00:49.534Z,41.83
2023-03-22T02:03:23.774Z,40.33
2023-03-22T02:05:53.144Z,45.23
2023-03-22T02:08:21.981Z,41.03
2023-03-22T02:10:50.774Z,41.27
2023-03-22T02:13:39.146Z,43.17
2023-03-22T02:16:20.015Z,42.33
2023-03-22T02:19:04.054Z,49.67
2023-03-22T02:22:06.750Z,47.20
2023-03-22T02:25:14.072Z,50.33
2023-03-22T02:28:15.888Z,42.73
2023-03-22T02:31:23.744Z,45.70
2023-03-22T02:34:17.016Z,42.87
2023-03-22T02:37:08.974Z,38.13
2023-03-22T02:39:43.701Z,41.93
2023-03-22T02:42:25.050Z,40.67
2023-03-22T02:45:03.050Z,42.17
2023-03-22T02:47:40.965Z,45.20
2023-03-22T02:50:15.672Z,40.77
2023-03-22T02:52:48.644Z,44.50
2023-03-22T02:55:23.401Z,43.13
2023-03-22T02:57:57.651Z,39.30
2023-03-22T03:00:28.251Z,39.37
2023-03-22T03:03:01.385Z,37.97
2023-03-22T03:05:34.242Z,37.87
2023-03-22T03:08:04.304Z,40.77
2023-03-22T03:10:35.913Z,35.27
2023-03-22T03:13:04.620Z,40.13
2023-03-22T03:15:33.829Z,37.50
2023-03-22T03:18:22.809Z,43.93
2023-03-22T03:21:02.558Z,40.43
2023-03-22T03:23:40.379Z,42.20
2023-03-22T03:26:15.816Z,36.87
2023-03-22T03:28:52.858Z,43.57
2023-03-22T03:31:31.838Z,41.47
2023-03-22T03:34:09.229Z,39.70
2023-03-22T03:36:41.993Z,40.33
2023-03-22T03:39:14.324Z,43.10
2023-03-22T03:41:47.342Z,34.70
2023-03-22T03:44:17.984Z,38.33
2023-03-22T03:46:48.051Z,39.00
2023-03-22T03:49:18.560Z,38.00
2023-03-22T03:51:49.991Z,42.20
2023-03-22T03:54:18.765Z,35.77
2023-03-22T03:56:49.568Z,39.70
2023-03-22T03:59:19.493Z,37.87
2023-03-22T04:01:52.532Z,36.03
2023-03-22T04:04:26.935Z,37.40
2023-03-22T04:06:58.018Z,35.67
2023-03-22T04:09:28.336Z,39.87
2023-03-22T04:11:59.336Z,36.07
2023-03-22T04:14:28.941Z,39.00
2023-03-22T04:16:58.010Z,37.07
2023-03-22T04:19:26.905Z,36.90
2023-03-22T04:21:55.723Z,36.03
2023-03-22T04:24:24.470Z,35.20
2023-03-22T04:26:53.800Z,36.43
2023-03-22T04:29:24.751Z,38.00
2023-03-22T04:31:54.433Z,37.30
2023-03-22T04:34:23.160Z,39.83
2023-03-22T04:36:51.858Z,37.70
2023-03-22T04:39:20.589Z,39.10
2023-03-22T04:41:49.325Z,37.17
2023-03-22T04:44:18.078Z,35.47
2023-03-22T04:46:48.219Z,40.03
2023-03-22T04:49:17.171Z,38.53
2023-03-22T04:51:45.983Z,41.20
2023-03-22T04:54:14.691Z,38.57
2023-03-22T04:56:43.392Z,36.23
2023-03-22T04:59:12.256Z,41.67
2023-03-22T05:01:42.802Z,42.90
2023-03-22T05:04:13.157Z,37.77
2023-03-22T05:06:41.941Z,41.40
2023-03-22T05:09:11.202Z,36.60
2023-03-22T05:11:40.890Z,40.93
2023-03-22T05:14:10.241Z,39.60
2023-03-22T05:16:40.805Z,39.03
2023-03-22T05:19:14.171Z,40.47
2023-03-22T05:21:45.382Z,41.20
2023-03-22T05:24:14.257Z,42.03
2023-03-22T05:26:43.202Z,41.23
2023-03-22T05:29:12.489Z,37.40
2023-03-22T05:31:41.504Z,40.80
2023-03-22T05:34:10.284Z,39.13
2023-03-22T05:36:39.027Z,38.67
2023-03-22T05:39:09.517Z,36.33
2023-03-22T05:41:38.234Z,37.47
2023-03-22T05:44:07.328Z,42.60
2023-03-22T05:46:36.253Z,37.83
2023-03-22T05:49:05.019Z,41.07
2023-03-22T05:51:34.229Z,40.47
2023-03-22T05:54:03.023Z,39.00
2023-03-22T05:56:33.577Z,37.17
2023-03-22T05:59:02.357Z,38.67
2023-03-22T06:01:31.125Z,38.27
2023-03-22T06:04:06.094Z,40.53
2023-03-22T06:06:34.755Z,38.57
2023-03-22T06:09:16.531Z,40.93
2023-03-22T06:11:47.549Z,35.93
2023-03-22T06:14:16.317Z,36.13
2023-03-22T06:16:45.137Z,36.70
2023-03-22T06:19:13.947Z,36.60
2023-03-22T06:21:42.713Z,38.77
2023-03-22T06:24:11.868Z,40.17
2023-03-22T06:26:41.449Z,36.40
2023-03-22T06:29:11.711Z,35.33
2023-03-22T06:31:42.837Z,46.70
2023-03-22T06:34:11.457Z,32.97
2023-03-22T06:36:41.227Z,35.23
2023-03-22T06:39:10.414Z,34.70
2023-03-22T06:41:39.110Z,32.97
2023-03-22T06:44:07.862Z,33.40
2023-03-22T06:46:38.232Z,31.50
2023-03-22T06:49:08.191Z,36.43
2023-03-22T06:51:37.245Z,33.73
2023-03-22T06:54:06.228Z,32.23
2023-03-22T06:56:34.923Z,34.70
2023-03-22T06:59:04.423Z,31.97
2023-03-22T07:01:33.269Z,29.83
2023-03-22T07:04:04.178Z,32.63
2023-03-22T07:06:33.366Z,31.30
2023-03-22T07:09:02.490Z,30.17
2023-03-22T07:11:31.293Z,33.80
2023-03-22T07:13:59.997Z,32.33
2023-03-22T07:16:28.851Z,30.27
2023-03-22T07:18:57.922Z,32.67
2023-03-22T07:21:28.396Z,28.93
2023-03-22T07:23:58.497Z,31.50
2023-03-22T07:26:27.701Z,28.53
2023-03-22T07:28:57.140Z,29.97
2023-03-22T07:31:26.067Z,30.77
2023-03-22T07:33:54.837Z,28.40
2023-03-22T07:36:26.267Z,31.33
2023-03-22T07:38:56.810Z,29.73
2023-03-22T07:41:27.490Z,27.47
2023-03-22T07:44:07.885Z,29.40
2023-03-22T07:46:46.983Z,27.50
2023-03-22T07:49:20.563Z,28.23
2023-03-22T07:51:49.295Z,27.97
2023-03-22T07:54:33.565Z,28.40
2023-03-22T07:57:07.617Z,26.07
2023-03-22T07:59:40.281Z,28.87
2023-03-22T08:02:17.096Z,27.77
2023-03-22T08:04:53.889Z,25.87
2023-03-22T08:07:25.538Z,25.57
2023-03-22T08:09:56.828Z,26.80
2023-03-22T08:12:28.341Z,24.87
2023-03-22T08:14:57.357Z,25.17
2023-03-22T08:17:26.502Z,25.63
2023-03-22T08:19:56.411Z,26.77
2023-03-22T08:22:26.172Z,26.30
2023-03-22T08:24:56.430Z,24.93
2023-03-22T08:27:25.171Z,27.30
2023-03-22T08:29:53.991Z,24.53
2023-03-22T08:32:22.840Z,26.80
2023-03-22T08:34:51.649Z,26.33
2023-03-22T08:37:21.198Z,25.80
2023-03-22T08:39:49.971Z,26.80
2023-03-22T08:42:20.122Z,23.03
2023-03-22T08:44:49.481Z,24.27
2023-03-22T08:47:18.151Z,25.03
2023-03-22T08:49:46.957Z,26.17
2023-03-22T08:52:15.758Z,24.27
2023-03-22T08:54:44.559Z,21.50
2023-03-22T08:57:14.648Z,22.90
2023-03-22T08:59:44.898Z,22.43
2023-03-22T09:02:13.796Z,23.00
2023-03-22T09:04:43.025Z,22.77
2023-03-22T09:07:12.118Z,21.67
2023-03-22T09:09:42.243Z,21.73
2023-03-22T09:12:11.675Z,21.77
2023-03-22T09:14:40.567Z,21.93
2023-03-22T09:17:11.114Z,20.97
2023-03-22T09:19:40.069Z,20.40
2023-03-22T09:22:08.988Z,20.13
2023-03-22T09:24:39.369Z,19.27
2023-03-22T09:27:08.506Z,17.57
2023-03-22T09:29:37.527Z,16.77
2023-03-22T09:32:06.836Z,18.27
2023-03-22T09:34:37.320Z,18.10
2023-03-22T09:37:06.542Z,18.50
2023-03-22T09:39:38.643Z,17.70
2023-03-22T09:42:14.660Z,17.67
2023-03-22T09:44:46.527Z,17.03
2023-03-22T09:47:18.892Z,17.70
2023-03-22T09:49:54.099Z,17.00
2023-03-22T09:52:23.990Z,17.03
2023-03-22T09:54:53.418Z,16.70
2023-03-22T09:57:28.297Z,18.93
2023-03-22T10:00:11.408Z,22.00
2023-03-22T10:02:53.903Z,13.73
2023-03-22T10:05:33.536Z,16.00
2023-03-22T10:08:17.935Z,13.23
2023-03-22T10:10:47.030Z,12.90
2023-03-22T10:13:23.237Z,14.10
2023-03-22T10:15:54.641Z,14.73
2023-03-22T10:18:27.545Z,14.37
2023-03-22T10:21:02.140Z,12.63
2023-03-22T10:23:36.965Z,13.07
2023-03-22T10:26:08.095Z,12.53
2023-03-22T10:28:41.004Z,11.57
2023-03-22T10:31:17.751Z,11.60
2023-03-22T10:33:54.012Z,13.10
2023-03-22T10:36:27.926Z,12.30
2023-03-22T10:38:59.308Z,15.33
2023-03-22T10:41:31.035Z,13.20
2023-03-22T10:44:04.387Z,15.47
2023-03-22T10:46:38.598Z,13.03
2023-03-22T10:49:10.086Z,14.07
2023-03-22T10:51:44.964Z,13.77
2023-03-22T10:54:16.872Z,12.10
2023-03-22T10:56:47.757Z,13.13
2023-03-22T10:59:46.168Z,12.00
2023-03-22T11:02:31.614Z,11.83
2023-03-22T11:05:02.738Z,12.90
2023-03-22T11:07:35.595Z,12.50
2023-03-22T11:10:30.303Z,12.93
2023-03-22T11:13:35.183Z,13.83
2023-03-22T11:16:06.059Z,12.83
2023-03-22T11:18:36.873Z,13.93
2023-03-22T11:21:09.144Z,14.77
2023-03-22T11:23:42.825Z,14.20
2023-03-22T11:26:13.695Z,13.90
2023-03-22T11:28:47.948Z,14.50
2023-03-22T11:31:18.885Z,14.23
2023-03-22T11:33:58.294Z,14.73
2023-03-22T11:36:28.722Z,14.50
2023-03-22T11:39:03.517Z,14.57
2023-03-22T11:41:37.813Z,16.33
2023-03-22T11:44:10.090Z,14.93
2023-03-22T11:46:41.552Z,15.20
2023-03-22T11:49:16.228Z,14.80
2023-03-22T11:51:57.134Z,15.00
2023-03-22T11:54:32.890Z,15.73
2023-03-22T11:57:05.293Z,15.07
2023-03-22T11:59:40.290Z,15.97
2023-03-22T12:02:19.941Z,15.87
2023-03-22T12:04:52.003Z,15.03
2023-03-22T12:07:24.808Z,14.03
2023-03-22T12:10:19.017Z,14.23
2023-03-22T12:13:11.030Z,14.13
2023-03-22T12:15:48.748Z,14.70
2023-03-22T12:18:24.620Z,14.63
2023-03-22T12:20:57.492Z,21.60
2023-03-22T12:23:28.835Z,14.10
2023-03-22T12:26:04.085Z,15.43
2023-03-22T12:28:36.634Z,15.17
2023-03-22T12:31:08.213Z,13.80
2023-03-22T12:33:43.388Z,11.40
2023-03-22T12:36:17.685Z,10.80
2023-03-22T12:38:51.364Z,11.83
2023-03-22T12:41:28.654Z,11.10
2023-03-22T12:44:00.318Z,12.40
2023-03-22T12:46:33.206Z,12.80
2023-03-22T12:49:07.424Z,12.13
2023-03-22T12:51:36.912Z,12.43
2023-03-22T12:54:06.612Z,12.20
2023-03-22T12:56:41.350Z,9.90
2023-03-22T12:59:18.621Z,11.57
2023-03-22T13:01:52.424Z,10.60
2023-03-22T13:04:52.847Z,9.50
2023-03-22T13:07:41.372Z,9.13
2023-03-22T13:10:52.936Z,8.70
2023-03-22T13:13:56.205Z,8.70
2023-03-22T13:16:42.456Z,9.40
2023-03-22T13:19:34.772Z,8.70
2023-03-22T13:22:21.486Z,7.43
2023-03-22T13:25:29.311Z,7.63
2023-03-22T13:27:59.867Z,7.50
2023-03-22T13:30:34.978Z,8.90
2023-03-22T13:33:16.004Z,8.70
2023-03-22T13:35:48.996Z,7.50
2023-03-22T13:38:23.256Z,8.20
2023-03-22T13:40:58.031Z,8.40
2023-03-22T13:43:30.610Z,8.30
2023-03-22T13:46:30.984Z,9.00
2023-03-22T13:49:26.682Z,9.07
2023-03-22T13:51:57.519Z,7.97
2023-03-22T13:54:36.060Z,9.53
2023-03-22T13:57:04.916Z,8.37
2023-03-22T14:00:10.473Z,8.57
2023-03-22T14:02:44.582Z,8.10
2023-03-22T14:05:18.088Z,8.10
2023-03-22T14:07:51.594Z,8.23
2023-03-22T14:10:25.567Z,8.60
2023-03-22T14:12:59.620Z,7.37
2023-03-22T14:15:32.947Z,7.90
2023-03-22T14:18:09.823Z,7.97
2023-03-22T14:20:43.784Z,7.33
